Taunsa Weather



Taunsa's Current Weather

Temprature 14.23o overcast clouds

overcast clouds

Rain: 0 %

Min Temprature14.23o
Max Temprature14.23o
Humidity40
Wind Speed1.56 m/h
Sun Rise07:05:08
Sun Set17:16:47
Current Time: 12-Dec-2019 01:29:06
Lat/Lon: 30.7, 70.65




Taunsa's Geo Location



Taunsa's Weather Forecast

Time Overall Temp Min Temp Max Temp Humidity Wind Speed Rain
12-Dec-2019 (Thu)
02:00:00 overcast clouds 14.230 14.230 14.230 40 1.56 m/h 0 %
05:00:00 overcast clouds 14.760 14.760 14.760 41 0.23 m/h 0 %
08:00:00 light rain 14.580 14.580 14.580 46 1.08 m/h 6 %
11:00:00 light rain 14.940 14.940 14.940 47 3 m/h 38 %
14:00:00 overcast clouds 13.750 13.750 13.750 55 4.12 m/h 0 %
17:00:00 overcast clouds 13.410 13.410 13.410 54 2.75 m/h 0 %
20:00:00 broken clouds 12.620 12.620 12.620 63 2.57 m/h 0 %
23:00:00 broken clouds 10.840 10.840 10.840 74 0.87 m/h 0 %
13-Dec-2019 (Fri)
02:00:00 overcast clouds 10.300 10.300 10.300 76 0.92 m/h 0 %
05:00:00 overcast clouds 9.390 9.390 9.390 79 0.65 m/h 0 %
08:00:00 broken clouds 10.910 10.910 10.910 70 1.47 m/h 0 %
11:00:00 scattered clouds 14.870 14.870 14.870 52 3.08 m/h 0 %
14:00:00 clear sky 17.330 17.330 17.330 43 4.32 m/h 0 %
17:00:00 clear sky 16.770 16.770 16.770 44 3.39 m/h 0 %
20:00:00 clear sky 14.140 14.140 14.140 54 2.17 m/h 0 %
23:00:00 clear sky 12.840 12.840 12.840 60 2.21 m/h 0 %
14-Dec-2019 (Sat)
02:00:00 clear sky 10.640 10.640 10.640 68 0.45 m/h 0 %
05:00:00 clear sky 9.440 9.440 9.440 76 0.86 m/h 0 %
08:00:00 clear sky 11.270 11.270 11.270 68 1.8 m/h 0 %
11:00:00 clear sky 15.310 15.310 15.310 54 3.35 m/h 0 %
14:00:00 clear sky 17.100 17.100 17.100 44 2.42 m/h 0 %
17:00:00 clear sky 16.770 16.770 16.770 43 1.88 m/h 0 %
20:00:00 overcast clouds 15.670 15.670 15.670 48 1.92 m/h 0 %
23:00:00 overcast clouds 14.840 14.840 14.840 52 1.2 m/h 0 %
15-Dec-2019 (Sun)
02:00:00 overcast clouds 13.580 13.580 13.580 56 1.88 m/h 0 %
05:00:00 overcast clouds 12.690 12.690 12.690 61 1.82 m/h 0 %
08:00:00 broken clouds 12.580 12.580 12.580 64 1.59 m/h 0 %
11:00:00 scattered clouds 16.080 16.080 16.080 49 1.3 m/h 0 %
14:00:00 clear sky 17.900 17.900 17.900 40 1.71 m/h 0 %
17:00:00 clear sky 17.280 17.280 17.280 40 1.26 m/h 0 %
20:00:00 clear sky 14.750 14.750 14.750 46 0.82 m/h 0 %
23:00:00 clear sky 13.390 13.390 13.390 50 0.84 m/h 0 %
16-Dec-2019 (Mon)
02:00:00 clear sky 12.330 12.330 12.330 52 1.15 m/h 0 %
05:00:00 clear sky 11.280 11.280 11.280 56 0.9 m/h 0 %
08:00:00 clear sky 12.330 12.330 12.330 53 0.97 m/h 0 %
11:00:00 clear sky 16.900 16.900 16.900 37 1.46 m/h 0 %
14:00:00 clear sky 18.660 18.660 18.660 31 2.51 m/h 0 %
17:00:00 clear sky 17.680 17.680 17.680 30 2.06 m/h 0 %
20:00:00 clear sky 14.920 14.920 14.920 34 1.77 m/h 0 %
23:00:00 clear sky 13.430 13.430 13.430 37 1.42 m/h 0 %

Famous Cities (61)